Latest Weather Observations for Bairnsdale

IDV60801

Issued at 10:12 pm EST Thursday 24 September 2020 (issued every 10 minutes, with the page automatically refreshed every 10 minutes)

About weather observations | Map of weather stations | Latest weather observations for VIC | Other Formats
Station Details ID: 085279 Name: BAIRNSDALE AIRPORT Lat: -37.88 Lon: 147.57 Height: 49.4 m
Data from the previous 72 hours. | See also: Recent months at Bairnsdale
Date/Time
EST
Temp
°C
App
Temp
°C
Dew
Point
°C
Rel
Hum
%
Delta-T
°C
Wind Press
QNH
hPa
Press
MSL
hPa
Rain since
9am
mm
Dir  Spd
km/h
Gust
km/h
Spd
kts
Gust
kts
24/10:00pm 7.5 4.9 3.4 75 1.7 ENE 6 7 3 4 1009.7 1009.7 0.0
24/09:30pm 8.6 6.1 4.6 76 1.8 NE 7 11 4 6 1010.0 1010.0 0.0
24/09:00pm 9.3 6.8 4.9 74 2.0 NE 7 9 4 5 1010.3 1010.3 0.0
24/08:30pm 9.8 6.2 5.0 72 2.2 NE 13 19 7 10 1010.2 1010.2 0.0
24/08:00pm 10.1 6.5 5.1 71 2.3 NE 13 17 7 9 1010.3 1010.3 0.0
24/07:30pm 10.3 7.1 5.1 70 2.4 ENE 11 13 6 7 1010.2 1010.2 0.0
24/07:00pm 11.0 7.4 5.1 67 2.7 NE 13 17 7 9 1010.3 1010.3 0.0
24/06:30pm 11.1 8.4 5.8 70 2.5 NNE 9 13 5 7 1010.2 1010.2 0.0
24/06:00pm 11.5 8.0 5.6 67 2.7 ENE 13 17 7 9 1009.9 1009.9 0.0
24/05:30pm 12.6 9.6 5.8 63 3.2 E 11 11 6 6 1009.5 1009.5 0.0
24/05:00pm 13.0 9.8 5.2 59 3.6 E 11 13 6 7 1009.2 1009.2 0.0
24/04:30pm 13.5 10.2 4.6 55 4.1 ESE 11 19 6 10 1009.0 1009.0 0.0
24/04:00pm 14.2 8.7 4.2 51 4.6 SW 22 28 12 15 1008.6 1008.6 0.0
24/03:30pm 15.3 10.8 4.1 47 5.2 WSW 17 46 9 25 1008.6 1008.6 0.0
24/03:23pm 15.5 10.4 4.3 47 5.2 SSW 20 46 11 25 1008.6 1008.6 0.0
24/03:00pm 14.5 9.6 4.2 50 4.8 SSW 19 24 10 13 1009.1 1009.1 0.0
24/02:30pm 14.5 9.4 4.2 50 4.7 SSW 20 24 11 13 1009.4 1009.4 0.0
24/02:00pm 14.6 10.1 4.0 49 4.9 S 17 22 9 12 1009.6 1009.6 0.0
24/01:30pm 14.7 9.5 3.5 47 5.1 S 20 30 11 16 1009.9 1009.9 0.0
24/01:00pm 15.3 10.6 1.1 38 6.2 WSW 15 22 8 12 1010.3 1010.3 0.0
24/12:30pm 15.8 11.4 2.9 42 5.8 WSW 15 26 8 14 1010.7 1010.7 0.0
24/12:00pm 14.4 10.4 2.9 46 5.2 WSW 13 19 7 10 1011.1 1011.1 0.0
24/11:30am 14.7 11.0 2.3 43 5.5 NW 11 20 6 11 1011.4 1011.4 0.0
24/11:00am 13.2 8.7 2.4 48 4.7 WSW 15 20 8 11 1012.2 1012.2 0.0
24/10:30am 13.3 9.1 3.9 53 4.3 WSW 15 22 8 12 1012.3 1012.3 0.0
24/10:00am 12.5 8.6 3.5 54 4.0 WNW 13 20 7 11 1012.6 1012.6 0.0
24/09:30am 12.2 9.2 4.2 58 3.6 NNW 9 19 5 10 1012.6 1012.6 0.0
24/09:00am 10.9 7.0 3.5 60 3.3 W 13 17 7 9 1012.8 1012.8 0.2
24/08:30am 10.0 5.9 4.2 67 2.6 NW 15 19 8 10 1012.9 1012.9 0.2
24/08:00am 8.5 5.1 4.1 74 1.9 NNW 11 15 6 8 1013.0 1013.0 0.2
24/07:30am 7.9 4.8 3.8 75 1.8 NW 9 13 5 7 1012.8 1012.8 0.2
24/07:00am 7.2 4.6 4.0 80 1.4 WNW 7 9 4 5 1012.5 1012.5 0.2
24/06:30am 4.2 0.4 1.9 85 0.9 NW 11 13 6 7 1012.3 1012.3 0.2
24/06:00am 3.9 0.3 0.8 80 1.2 NW 9 13 5 7 1012.1 1012.1 0.2
24/05:30am 5.3 1.2 2.3 81 1.2 W 13 17 7 9 1011.8 1011.8 0.2
24/05:00am 5.0 0.8 1.8 80 1.3 W 13 17 7 9 1011.7 1011.7 0.2
24/04:30am 5.9 2.4 1.4 73 1.8 WNW 9 13 5 7 1011.7 1011.7 0.2
24/04:00am 7.3 2.8 2.2 70 2.1 W 15 19 8 10 1011.5 1011.5 0.2
24/03:30am 7.6 2.4 2.7 71 2.1 W 19 24 10 13 1011.5 1011.5 0.2
24/03:00am 7.9 2.6 3.2 72 2.0 W 20 35 11 19 1011.5 1011.5 0.2
24/02:30am 8.0 3.1 4.0 76 1.7 WSW 19 28 10 15 1011.6 1011.6 0.2
24/02:00am 7.6 2.7 4.2 79 1.5 WSW 19 28 10 15 1012.0 1012.0 0.2
24/01:30am 8.1 3.2 4.1 76 1.7 W 19 24 10 13 1012.3 1012.3 0.2
24/01:00am 8.7 2.4 3.9 72 2.1 WSW 26 35 14 19 1012.5 1012.5 0.2
24/12:30am 8.8 2.5 4.0 72 2.1 WSW 26 35 14 19 1012.6 1012.6 0.2
24/12:00am 8.7 2.8 3.9 72 2.1 WSW 24 35 13 19 1012.6 1012.6 0.2
 
Date/Time
EST
Temp
°C
App
Temp
°C
Dew
Point
°C
Rel
Hum
%
Delta-T
°C
Wind Press
QNH
hPa
Press
MSL
hPa
Rain since
9am
mm
Dir  Spd
km/h
Gust
km/h
Spd
kts
Gust
kts
23/11:30pm 8.0 3.5 4.2 77 1.7 W 17 24 9 13 1012.7 1012.7 0.2
23/11:00pm 8.4 3.6 4.4 76 1.8 W 19 26 10 14 1012.8 1012.8 0.2
23/10:30pm 8.7 4.3 4.7 76 1.8 W 17 24 9 13 1012.8 1012.8 0.2
23/10:00pm 9.0 3.3 4.8 75 1.9 WSW 24 37 13 20 1012.9 1012.9 0.2
23/09:30pm 9.0 3.7 5.0 76 1.8 WSW 22 33 12 18 1012.8 1012.8 0.2
23/09:00pm 8.9 4.2 5.3 78 1.6 WSW 19 26 10 14 1012.7 1012.7 0.2
23/08:30pm 9.5 5.0 5.9 78 1.7 WSW 19 24 10 13 1012.5 1012.5 0.2
23/08:00pm 9.7 4.6 6.1 78 1.7 WSW 22 30 12 16 1012.3 1012.3 0.2
23/07:30pm 9.7 5.1 6.4 80 1.5 WSW 20 32 11 17 1012.0 1012.0 0.2
23/07:00pm 9.7 5.3 6.6 81 1.5 WSW 19 24 10 13 1011.6 1011.6 0.2
23/06:30pm 10.4 4.8 7.1 80 1.6 WSW 26 35 14 19 1011.3 1011.3 0.0
23/06:00pm 11.2 5.7 7.5 78 1.8 WSW 26 39 14 21 1010.8 1010.8 0.0
23/05:30pm 12.1 6.5 7.0 71 2.5 WSW 26 39 14 21 1010.2 1010.2 0.0
23/05:00pm 12.3 6.0 7.6 73 2.3 WSW 30 39 16 21 1009.9 1009.9 0.0
23/04:30pm 12.7 5.4 7.0 68 2.8 WSW 35 46 19 25 1009.5 1009.5 0.0
23/04:00pm 13.8 8.5 8.6 71 2.6 SW 26 35 14 19 1009.4 1009.4 0.0
23/03:30pm 13.9 7.9 8.5 70 2.7 SW 30 39 16 21 1009.1 1009.1 0.0
23/03:00pm 15.3 9.2 6.8 57 4.2 WSW 28 39 15 21 1009.0 1009.0 0.0
23/02:30pm 13.4 5.9 6.3 62 3.4 WSW 35 50 19 27 1009.2 1009.2 0.0
23/02:17pm 15.5 8.7 6.8 56 4.3 WSW 32 50 17 27 1009.2 1009.2 0.0
23/02:00pm 15.0 7.2 6.8 58 4.0 WSW 37 50 20 27 1009.0 1009.0 0.0
23/01:30pm 15.3 9.4 7.6 60 3.8 SW 28 37 15 20 1008.8 1008.8 0.0
23/01:00pm 14.0 6.6 6.6 61 3.6 SW 35 44 19 24 1009.1 1009.1 0.0
23/12:30pm 15.9 9.3 7.7 58 4.1 SW 32 43 17 23 1008.9 1008.9 0.0
23/12:08pm 16.8 9.2 2.8 39 6.4 W 32 50 17 27 1008.8 1008.8 0.0
23/12:00pm 17.7 10.7 4.3 41 6.4 W 30 43 16 23 1008.9 1008.9 0.0
23/11:32am 16.1 8.4 3.2 42 5.9 W 33 56 18 30 1009.1 1009.1 0.0
23/11:30am 16.5 9.1 3.9 43 5.9 W 32 44 17 24 1009.1 1009.1 0.0
23/11:00am 17.2 10.4 4.9 44 5.9 WNW 30 44 16 24 1009.2 1009.2 0.0
23/10:30am 15.4 8.3 3.5 45 5.4 WNW 30 43 16 23 1009.5 1009.5 0.0
23/10:23am 15.9 8.9 4.0 45 5.5 WNW 30 48 16 26 1009.5 1009.5 0.0
23/10:00am 15.3 7.8 3.5 45 5.4 WNW 32 48 17 26 1009.5 1009.5 0.0
23/09:30am 15.3 8.1 3.1 44 5.5 WNW 30 44 16 24 1009.5 1009.5 0.0
23/09:00am 14.7 6.9 1.9 42 5.6 WNW 32 52 17 28 1009.5 1009.5 0.2
23/08:51am 14.7 8.0 3.5 47 5.1 WNW 28 46 15 25 1009.5 1009.5 0.2
23/08:48am 14.4 7.2 2.9 46 5.2 WNW 30 46 16 25 1009.5 1009.5 0.2
23/08:30am 13.6 8.6 4.7 55 4.1 NW 20 28 11 15 1009.6 1009.6 0.2
23/08:00am 11.9 7.8 4.4 60 3.4 NW 15 19 8 10 1009.7 1009.7 0.2
23/07:30am 10.8 7.1 4.3 64 2.9 NW 13 19 7 10 1009.6 1009.6 0.2
23/07:00am 8.4 5.3 3.8 73 2.0 NNW 9 13 5 7 1009.5 1009.5 0.2
23/06:30am 6.9 4.1 3.0 76 1.6 N 7 9 4 5 1009.1 1009.1 0.2
23/06:00am 7.3 3.7 2.8 73 1.9 WNW 11 13 6 7 1008.8 1008.8 0.2
23/05:30am 5.4 2.6 2.9 84 1.0 WNW 7 11 4 6 1008.7 1008.7 0.2
23/05:00am 5.5 2.8 2.5 81 1.2 N 6 6 3 3 1008.6 1008.6 0.2
23/04:30am 6.4 4.0 2.1 74 1.8 W 4 9 2 5 1008.6 1008.6 0.2
23/04:00am 7.4 4.2 2.9 73 1.9 W 9 11 5 6 1008.3 1008.4 0.2
23/03:30am 8.3 4.9 3.9 74 1.9 WNW 11 13 6 7 1008.3 1008.4 0.2
23/03:00am 7.7 4.8 4.7 81 1.3 NNW 9 13 5 7 1008.2 1008.3 0.2
23/02:30am 7.6 5.1 4.6 81 1.3 N 7 9 4 5 1008.3 1008.4 0.2
23/02:00am 8.0 5.5 4.9 81 1.4 N 7 11 4 6 1008.3 1008.4 0.2
23/01:30am 8.2 5.7 4.6 78 1.6 NNW 7 9 4 5 1008.6 1008.6 0.2
23/01:00am 8.8 6.5 4.6 75 1.9 N 6 7 3 4 1008.8 1008.8 0.2
23/12:30am 9.4 6.9 5.0 74 2.0 WNW 7 13 4 7 1008.9 1008.9 0.2
23/12:00am 10.0 5.8 5.8 75 1.9 NW 17 22 9 12 1008.8 1008.8 0.2
 
Date/Time
EST
Temp
°C
App
Temp
°C
Dew
Point
°C
Rel
Hum
%
Delta-T
°C
Wind Press
QNH
hPa
Press
MSL
hPa
Rain since
9am
mm
Dir  Spd
km/h
Gust
km/h
Spd
kts
Gust
kts
22/11:30pm 8.7 5.3 5.8 82 1.3 NW 13 17 7 9 1009.1 1009.1 0.2
22/11:00pm 9.3 6.4 6.6 83 1.3 NW 11 13 6 7 1009.3 1009.3 0.2
22/10:30pm 10.2 7.8 7.1 81 1.5 NNW 9 13 5 7 1009.5 1009.5 0.2
22/10:00pm 10.6 8.1 6.4 75 2.0 NW 9 15 5 8 1009.8 1009.8 0.2
22/09:30pm 11.2 7.0 5.9 70 2.5 W 17 22 9 12 1009.5 1009.5 0.2
22/09:00pm 11.6 6.9 6.1 69 2.6 WNW 20 30 11 16 1009.4 1009.4 0.2
22/08:30pm 10.9 4.8 6.6 75 2.0 WNW 28 39 15 21 1009.4 1009.4 0.2
22/08:00pm 11.6 4.8 6.9 73 2.2 WSW 32 43 17 23 1009.5 1009.5 0.0
22/07:30pm 13.4 9.3 6.3 62 3.4 NW 17 26 9 14 1008.1 1008.2 0.0
22/07:00pm 14.2 7.9 5.6 56 4.1 WNW 28 39 15 21 1007.1 1007.2 0.0
22/06:41pm 15.3 8.5 5.0 50 4.9 NW 30 48 16 26 1006.7 1006.8 0.0
22/06:30pm 15.5 9.8 5.1 50 4.9 NW 24 39 13 21 1006.6 1006.7 0.0
22/06:00pm 15.7 8.2 4.7 48 5.2 NW 33 46 18 25 1005.6 1005.7 0.0
22/05:30pm 15.9 7.7 4.6 47 5.3 NNW 37 56 20 30 1004.9 1005.0 0.0
22/05:03pm 16.9 9.7 4.9 45 5.7 NNW 32 50 17 27 1004.5 1004.5 0.0
22/05:00pm 16.9 9.4 4.6 44 5.9 NNW 33 50 18 27 1004.5 1004.5 0.0
22/04:30pm 17.7 10.4 4.6 42 6.2 NNW 32 46 17 25 1004.1 1004.1 0.0
22/04:10pm 18.3 11.7 4.1 39 6.7 NNW 28 46 15 25 1004.1 1004.1 0.0
22/04:00pm 18.5 11.5 4.3 39 6.8 NNW 30 43 16 23 1004.0 1004.0 0.0
22/03:30pm 18.9 10.8 3.1 35 7.4 NNW 35 50 19 27 1003.9 1003.9 0.0
22/03:00pm 20.3 12.7 3.1 32 8.2 NW 32 52 17 28 1003.7 1003.7 0.0
22/02:30pm 20.3 13.3 2.2 30 8.4 NW 28 48 15 26 1003.7 1003.7 0.0
22/02:27pm 20.1 13.1 2.0 30 8.3 NW 28 48 15 26 1003.8 1003.8 0.0
22/02:00pm 20.1 14.0 2.5 31 8.2 NW 24 37 13 20 1003.7 1003.7 0.0
22/01:33pm 20.1 12.2 2.5 31 8.2 NNW 33 52 18 28 1003.9 1003.9 0.0
22/01:30pm 20.3 12.5 3.1 32 8.1 NNW 33 48 18 26 1003.8 1003.8 0.0
22/01:00pm 19.2 11.2 1.7 31 8.0 NNW 33 50 18 27 1004.0 1004.0 0.0
22/12:30pm 19.9 10.9 2.7 32 8.0 NNW 39 57 21 31 1003.8 1003.8 0.0
22/12:00pm 20.3 11.7 4.8 36 7.6 NNW 39 57 21 31 1003.8 1003.8 0.0
22/11:32am 20.8 13.2 6.0 38 7.4 NW 35 54 19 29 1003.7 1003.7 0.0
22/11:30am 20.8 13.3 6.4 39 7.3 NNW 35 50 19 27 1003.8 1003.8 0.0
22/11:11am 20.2 14.7 5.8 39 7.2 NW 24 39 13 21 1003.8 1003.8 0.0
22/11:00am 19.0 15.8 6.8 45 6.2 W 13 20 7 11 1004.1 1004.1 0.0
22/10:30am 18.5 15.2 6.4 45 6.0 WSW 13 22 7 12 1004.3 1004.3 0.0
22/10:00am 18.6 14.2 7.4 48 5.7 NW 20 32 11 17 1004.7 1004.8 0.0
22/09:30am 17.9 12.0 7.6 51 5.2 NNW 28 37 15 20 1004.7 1004.8 0.0
22/09:00am 17.3 11.4 7.4 52 5.0 NNW 28 39 15 21 1004.9 1005.0 2.0
22/08:30am 16.3 10.2 6.7 53 4.7 NW 28 39 15 21 1004.9 1005.0 2.0
22/08:23am 16.2 10.1 6.6 53 4.7 NNW 28 39 15 21 1004.8 1004.9 2.0
22/08:00am 15.6 12.4 4.9 49 5.1 WNW 11 19 6 10 1005.0 1005.1 2.0
22/07:30am 14.0 11.5 4.9 54 4.2 NW 7 11 4 6 1005.1 1005.2 2.0
22/07:00am 12.7 9.6 5.4 61 3.4 NW 11 20 6 11 1005.1 1005.2 2.0
22/06:30am 10.5 6.8 4.4 66 2.7 W 13 17 7 9 1004.9 1005.0 2.0
22/06:00am 11.2 7.5 2.2 54 3.9 N 11 19 6 10 1004.7 1004.8 2.0
22/05:30am 9.6 6.7 4.8 72 2.2 NNE 9 13 5 7 1004.4 1004.4 2.0
22/05:00am 6.1 3.4 2.4 77 1.5 ENE 6 7 3 4 1004.4 1004.4 2.0
22/04:30am 7.3 4.3 3.9 79 1.5 ESE 9 11 5 6 1003.9 1003.9 2.0
22/04:00am 7.4 3.5 3.6 77 1.6 E 13 15 7 8 1003.7 1003.7 2.0
22/03:30am 7.8 4.6 3.1 72 2.0 NE 9 15 5 8 1003.9 1003.9 2.0
22/03:00am 9.6 6.0 2.9 63 2.9 N 11 17 6 9 1004.3 1004.3 2.0
22/02:30am 9.2 6.6 7.8 91 0.7 N 11 13 6 7 1004.7 1004.8 2.0
22/02:00am 8.3 5.8 8.2 99 0.0 N 11 15 6 8 1005.1 1005.2 2.0
22/01:30am 6.9 4.5 6.8 99 0.0 N 9 11 5 6 1005.5 1005.6 2.0
22/01:14am 6.8 4.3 6.7 99 0.0 N 9 13 5 7 1005.7 1005.8 2.0
22/01:00am 6.8 3.9 6.7 99 0.0 N 11 13 6 7 1005.7 1005.8 2.0
22/12:30am 7.3 5.3 7.2 99 0.0 NNE 7 9 4 5 1005.9 1006.0 2.0
22/12:00am 7.6 5.9 7.5 99 0.0 NNW 6 7 3 4 1006.1 1006.2 2.0
 
Date/Time
EST
Temp
°C
App
Temp
°C
Dew
Point
°C
Rel
Hum
%
Delta-T
°C
Wind Press
QNH
hPa
Press
MSL
hPa
Rain since
9am
mm
Dir  Spd
km/h
Gust
km/h
Spd
kts
Gust
kts
21/11:30pm 7.9 6.1 7.8 99 0.0 N 7 7 4 4 1006.0 1006.1 2.0
21/11:26pm 7.5 5.6 7.4 99 0.0 N 7 9 4 5 1006.0 1006.1 2.0
21/11:00pm 8.0 6.2 7.9 99 0.0 NNE 7 11 4 6 1006.0 1006.1 2.0
21/10:43pm 8.4 6.9 8.3 99 0.0 N 6 9 3 5 1006.1 1006.2 2.0
21/10:35pm 8.9 6.9 8.8 99 0.0 NNW 9 13 5 7 1005.9 1006.0 2.0
21/10:30pm 8.2 5.7 8.1 99 0.0 NW 11 13 6 7 1006.0 1006.1 2.0

Other formats

Comma delimited format used in spreadsheet applications
http://www.bom.gov.au/fwo/IDV60801/IDV60801.94912.axf

JavaScript Object Notation format (JSON) in row-major order
http://www.bom.gov.au/fwo/IDV60801/IDV60801.94912.json

Data quality

Most of these data are generated automatically and are frequently updated. Quality checks on data are not normally performed. It is possible for incorrect values to appear. Refer to information at About Latest Weather Observations and please check the disclaimer before using these data.